KHYA/HYA METAR and TAF weather

Enter ICAO airport designator
Station Type Date Time Source
KHYA METAR 2022/12/10 00:56 UTC NOAA

KHYA 100056Z 02017G27KT 10SM CLR 06/M04 A3016 RMK AO2 PK WND 35032/2359 SLP212 T00561039


Station Type Date Time Source
KHYA Decoded METAR 2022/12/10 00:56 UTC NOAA

HYANNIS BARNSTABLE BOARDMN, MA, United States (KHYA) 41-40N 070-16W 22M
Dec 09, 2022 - 07:56 PM EST / 2022.12.10 0056 UTC
Wind: from the NNE (020 degrees) at 20 MPH (17 KT) gusting to 31 MPH (27 KT):0
Visibility: 10 mile(s):0
Sky conditions: clear
Temperature: 42.1 F (5.6 C)
Dew Point: 25.0 F (-3.9 C)
Relative Humidity: 50%
Pressure (altimeter): 30.16 in. Hg (1021 hPa)
ob: KHYA 100056Z 02017G27KT 10SM CLR 06/M04 A3016 RMK AO2 PK WND 35032/2359 SLP212 T00561039
cycle: 1

Station Type Date Time Source
KHYA TAF 2022/12/09 18:42 UTC NOAA

TAF KHYA 091741Z 0918/1018 36021G29KT P6SM SKC
FM092200 01019G33KT P6SM SKC
FM100400 02018G31KT P6SM BKN035
FM100500 02018G30KT P6SM BKN025
FM100900 02018G28KT P6SM OVC015
FM101700 03017G26KT P6SM VCSH OVC015

Example: see airport list